Terminal Aerodrome Forecast
Issued by NWS

Home | Current Version | Previous Version | Text Only | Print | Product List | Glossary On
Versions: 1 2 3 4 5 6 7 8 9 10 11 12 13 14 15 16 17 18 19 20 21 22 23 24 25 26 27 28 29 30 31 32 33
000
FTAK31 PAFA 231737
TAFAOM
TAF
PAOM 231737Z 2318/2418 21014KT 1 1/2SM -RA BR OVC005
     FM232200 27012KT 6SM -RA SCT005 OVC010
     FM240200 33012KT P6SM VCSH FEW005 OVC020
     FM240900 31007KT 4SM BR BKN015=

USA.gov is the U.S. government's official web portal to all federal, state and local government web resources and services.